Aérodrome :
LOGIN :

S'inscrire | Disclaimer

   EN    FR    IT 

 










Légende :    VFR   VFR Marginal   IFR   IFR Intensif   IFR Très Intensif
Visi : 
Plafond : 
>= 8 km
>= 3000ft
5 à 8 km
1000 à 3000 ft
1500m à 5 km
500 à 1000 ft
800 à 1500m
200 à 500 ft
< 800m
< 200 ft
Symboles :   Orages  Brouillard  Fortes neiges  Fortes précipitations  Vent > 20 kt
SIGMETs :   Divers  Orages  Givrage  Turbulence  Onde Orograph.  Cendres Volcan.







- Altitude de l'aérodrome : 699 ft
- Code IATA : PAD


EDLP - Paderborn Lippstadt

DERNIER METAR :
  • 100120Z 27011KT 220V300 9999 FEW015 BKN022 BKN033 04/02 Q1012

METARs EXPIRÉS :
  • 100050Z 27010KT 220V310 9999 FEW016 BKN020 04/02 Q1012
  • 100020Z 27011G21KT 230V310 9999 04/02 Q1012
  • 092350Z 26011G22KT 220V330 9999 FEW017 BKN028 05/02 Q1011
  • 092320Z 27011G21KT 240V310 9999 FEW023 SCT041 04/02 Q1011
  • 092250Z 27012G22KT 230V310 9999 FEW019 04/02 Q1011

TAF TAF EDLP
Valide du 10 à 00h jusqu'au 11 à 00h UTC


092300Z 1000/1024 28012KT 9999 BKN025
TEMPO 1003/1016 BKN012
PROB30
TEMPO 1012/1015 28015G25KT 4000 SHRASN BKN009TCU
TEMPO 1022/1024 BKN010
Pas de NOTAMs connus pour ce terrain.



MET'MAP, la Météo Aéronautique d'un coup d'oeil ! - Copyright ORBIFLY Décembre 2007 - Disclaimer

ORBIFLY MET'MAP TEAM :

Programmation & Développement : Alexandra Zaïnal
Conception & Développement : Baudouin d'Aumeries
Co-Programmation & Développement : Marc-Olivier Méhu
Soutien technique & logistique : Manuel Goepfert

Contact : metmap@orbifly.com




SOURCES & CREDITS :

   NOAA